This is the latest recevied weather packets stored in our database for station/object KG4YZY-1. If no packets are shown the sender has not sent any weather packets the latest 1 day(s).
| Time | Temp. | Humidity | Pressure | Rain* | Wind** | Luminosity | Snow |
|---|---|---|---|---|---|---|---|
| 1777991403 | 25° C | 69% | 1018 hPa | 0 mm | 1.34 m/s, 139° | - | - |
| 1777991103 | 25° C | 68% | 1017.9 hPa | 0 mm | 1.34 m/s, 115° | - | - |
| 1777990803 | 25° C | 68% | 1017.9 hPa | 0 mm | 2.24 m/s, 120° | - | - |
| 1777990503 | 25° C | 69% | 1017.7 hPa | 0 mm | 1.34 m/s, 129° | - | - |
| 1777990203 | 24.44° C | 69% | 1017.7 hPa | 0 mm | 1.79 m/s, 118° | - | - |
| 1777989903 | 24.44° C | 70% | 1017.7 hPa | 0 mm | 1.34 m/s, 129° | - | - |
| 1777989604 | 24.44° C | 71% | 1017.7 hPa | 0 mm | 1.34 m/s, 116° | - | - |
| 1777989303 | 23.89° C | 71% | 1017.7 hPa | 0 mm | 1.34 m/s, 129° | - | - |
| 1777989003 | 23.89° C | 72% | 1017.6 hPa | 0 mm | 1.79 m/s, 118° | - | - |
| 1777988703 | 23.89° C | 73% | 1017.5 hPa | 0 mm | 0.45 m/s, 109° | - | - |
| 1777988403 | 23.89° C | 73% | 1017.4 hPa | 0 mm | 1.79 m/s, 117° | - | - |
| 1777988103 | 23.33° C | 75% | 1017.4 hPa | 0 mm | 0.45 m/s, 126° | - | - |
| 1777987804 | 23.33° C | 76% | 1017.4 hPa | 0 mm | 0.89 m/s, 140° | - | - |
| 1777987504 | 22.78° C | 77% | 1017.3 hPa | 0 mm | 0.89 m/s, 119° | - | - |
| 1777987203 | 22.22° C | 79% | 1017.3 hPa | 0 mm | 0.45 m/s, 126° | - | - |
| 1777986904 | 22.22° C | 79% | 1017.2 hPa | 0 mm | 0.45 m/s, 113° | - | - |
| 1777986604 | 21.67° C | 80% | 1017.3 hPa | 0 mm | 0.45 m/s, 128° | - | - |
| 1777986304 | 21.67° C | 81% | 1017.3 hPa | 0 mm | 1.79 m/s, 139° | - | - |
| 1777986004 | 21.11° C | 82% | 1017.4 hPa | 0 mm | 1.34 m/s, 136° | - | - |
| 1777985704 | 21.11° C | 83% | 1017.3 hPa | 0 mm | 0.89 m/s, 130° | - | - |
| 1777985404 | 20.56° C | 84% | 1017.4 hPa | 0 mm | 0 m/s | - | - |
| 1777985103 | 20° C | 85% | 1017.4 hPa | 0 mm | 0 m/s | - | - |
| 1777984804 | 20° C | 86% | 1017.3 hPa | 0 mm | 0 m/s | - | - |
| 1777984503 | 19.44° C | 86% | 1017.4 hPa | 0 mm | 0.45 m/s, 128° | - | - |
| 1777984203 | 19.44° C | 87% | 1017.3 hPa | 0 mm | 0.89 m/s, 135° | - | - |
* Rain latest hour (hover to see other rain measurements)
** Current wind speed in m/s (hover to see current wind gust speed)